Time;durP1;ratioP1;P1;durP2;ratioP2;P2;SDS_P1;SDS_P2;PMS_P1;PMS_P2;Temp;Humidity;BMP_temperature;BMP_pressure;BME280_temperature;BME280_humidity;BME280_pressure;Samples;Min_cycle;Max_cycle;Signal;HPM_P1;HPM_P2
2021/06/27 00:01:10;;;;;;;6.60;3.38;;;20.50;79.00;;;;;;5055010;28;20024;-79
2021/06/27 00:03:36;;;;;;;4.20;3.13;;;20.40;78.70;;;;;;5072821;28;20082;-80
2021/06/27 00:06:01;;;;;;;6.63;3.20;;;20.30;78.90;;;;;;5054788;28;20028;-80
2021/06/27 00:08:27;;;;;;;4.03;3.22;;;20.30;79.20;;;;;;5054708;28;20033;-78
2021/06/27 00:10:57;;;;;;;5.13;3.58;;;20.20;79.50;;;;;;5072652;28;20227;-80
2021/06/27 00:13:23;;;;;;;10.15;3.17;;;20.20;79.70;;;;;;5054714;28;20032;-80
2021/06/27 00:15:49;;;;;;;5.68;3.40;;;20.10;80.00;;;;;;5054610;28;20078;-80
2021/06/27 00:18:19;;;;;;;6.07;3.80;;;20.00;80.00;;;;;;5054495;28;20024;-80
2021/06/27 00:20:46;;;;;;;4.05;3.42;;;20.00;80.20;;;;;;5054278;28;20059;-80
2021/06/27 00:23:14;;;;;;;10.85;3.42;;;20.00;80.50;;;;;;5054567;28;20499;-79
2021/06/27 00:25:40;;;;;;;7.72;3.33;;;20.00;80.90;;;;;;5072528;28;20501;-80
2021/06/27 00:28:07;;;;;;;4.70;3.45;;;19.90;81.20;;;;;;5054407;28;20036;-80
2021/06/27 00:30:34;;;;;;;5.22;3.83;;;19.90;81.40;;;;;;5071996;28;20044;-81
2021/06/27 00:33:01;;;;;;;5.45;3.58;;;19.80;81.80;;;;;;5072404;28;20032;-80
2021/06/27 00:35:28;;;;;;;4.50;3.42;;;19.80;82.40;;;;;;5072172;28;20024;-81
2021/06/27 00:37:54;;;;;;;9.30;3.03;;;19.70;82.60;;;;;;5054284;28;20111;-80
2021/06/27 00:40:22;;;;;;;6.07;4.03;;;19.70;82.80;;;;;;5054207;28;20074;-79
2021/06/27 00:42:49;;;;;;;5.32;3.55;;;19.70;82.80;;;;;;5071959;28;20507;-79
2021/06/27 00:45:16;;;;;;;9.20;3.55;;;19.60;82.90;;;;;;5072005;28;20028;-80
2021/06/27 00:47:44;;;;;;;13.55;3.28;;;19.60;83.20;;;;;;5054044;28;20024;-78
2021/06/27 00:50:22;;;;;;;6.95;3.15;;;19.60;83.20;;;;;;5071935;28;20032;-80
2021/06/27 00:52:48;;;;;;;4.47;3.38;;;19.70;83.90;;;;;;5054431;28;20043;-80
2021/06/27 00:55:15;;;;;;;5.68;3.70;;;19.60;83.50;;;;;;5053982;28;20164;-80
2021/06/27 00:57:43;;;;;;;3.42;2.78;;;19.60;83.60;;;;;;5053913;28;20032;-80
2021/06/27 01:00:13;;;;;;;7.47;3.35;;;19.60;83.80;;;;;;5054007;28;20024;-78
2021/06/27 01:02:40;;;;;;;6.25;3.72;;;19.60;83.80;;;;;;5055025;28;20040;-79
2021/06/27 01:05:11;;;;;;;12.10;3.63;;;19.60;83.80;;;;;;5053822;28;20542;-81
2021/06/27 01:07:38;;;;;;;10.18;4.13;;;19.70;84.00;;;;;;5053469;28;20111;-80
2021/06/27 01:10:04;;;;;;;6.47;3.88;;;19.70;83.90;;;;;;5053974;28;20121;-80
2021/06/27 01:12:30;;;;;;;5.68;3.75;;;19.80;84.00;;;;;;5053538;28;20051;-79
2021/06/27 01:14:56;;;;;;;5.47;3.80;;;19.70;83.40;;;;;;5053597;28;20488;-81
2021/06/27 01:17:22;;;;;;;4.63;3.80;;;19.70;83.80;;;;;;5053774;28;20113;-81
2021/06/27 01:19:48;;;;;;;7.80;3.90;;;19.50;83.40;;;;;;5071445;28;20394;-80
2021/06/27 01:22:14;;;;;;;6.57;3.80;;;19.40;83.80;;;;;;5053340;28;20043;-80
2021/06/27 01:24:39;;;;;;;5.97;4.13;;;19.40;84.30;;;;;;5071364;28;20060;-81
2021/06/27 01:27:06;;;;;;;8.00;3.70;;;19.30;84.80;;;;;;5053265;28;20709;-81
2021/06/27 01:29:31;;;;;;;6.72;3.63;;;19.20;85.10;;;;;;5053368;28;20032;-80
2021/06/27 01:31:58;;;;;;;5.30;4.43;;;19.20;85.90;;;;;;5071084;28;20505;-81
2021/06/27 01:34:24;;;;;;;4.72;3.60;;;19.10;85.80;;;;;;5053144;28;20123;-81
2021/06/27 01:36:50;;;;;;;5.25;3.92;;;19.20;86.20;;;;;;5071172;28;20547;-81
2021/06/27 01:39:16;;;;;;;7.00;4.50;;;19.10;87.00;;;;;;5053055;28;20025;-78
2021/06/27 01:41:51;;;;;;;6.45;3.67;;;19.10;86.40;;;;;;5053272;28;20021;-80
2021/06/27 01:44:18;;;;;;;6.27;4.10;;;19.10;86.60;;;;;;5052890;28;20044;-81
2021/06/27 01:46:44;;;;;;;7.47;4.30;;;19.20;86.90;;;;;;5070843;28;20028;-80
2021/06/27 01:49:12;;;;;;;6.13;4.20;;;19.10;87.00;;;;;;5070989;28;20051;-81
2021/06/27 01:51:39;;;;;;;8.68;4.03;;;19.20;87.50;;;;;;5070721;28;20024;-81
2021/06/27 01:54:06;;;;;;;6.32;4.65;;;19.10;87.70;;;;;;5052750;28;20038;-81
2021/06/27 01:56:32;;;;;;;6.72;4.65;;;19.10;88.00;;;;;;5070669;28;20028;-79
2021/06/27 01:59:01;;;;;;;8.05;4.35;;;19.10;89.10;;;;;;5070500;28;20023;-81
2021/06/27 02:01:38;;;;;;;8.00;4.45;;;19.10;88.50;;;;;;5052597;28;20489;-79
2021/06/27 02:04:05;;;;;;;7.38;4.22;;;19.10;88.30;;;;;;5052771;28;20463;-80
2021/06/27 02:06:42;;;;;;;6.82;4.28;;;19.10;88.20;;;;;;5070467;28;20104;-78
2021/06/27 02:09:11;;;;;;;6.60;3.92;;;19.10;88.30;;;;;;5052583;28;20119;-80
2021/06/27 02:11:38;;;;;;;8.98;4.57;;;19.00;88.40;;;;;;5070461;28;20035;-81
2021/06/27 02:14:04;;;;;;;6.40;4.03;;;19.10;88.70;;;;;;5052416;28;20275;-81
2021/06/27 02:16:30;;;;;;;5.35;4.30;;;19.00;88.50;;;;;;5070314;28;20025;-80
2021/06/27 02:18:57;;;;;;;5.53;5.00;;;19.00;88.40;;;;;;5069428;28;20031;-79
2021/06/27 02:21:32;;;;;;;5.15;4.35;;;18.90;88.50;;;;;;5052182;28;20083;-81
2021/06/27 02:23:59;;;;;;;6.47;4.75;;;18.90;88.80;;;;;;5070120;28;20041;-79
2021/06/27 02:26:26;;;;;;;8.98;4.15;;;18.80;89.10;;;;;;5052235;28;20373;-80
2021/06/27 02:28:53;;;;;;;8.38;5.07;;;18.80;89.20;;;;;;5052158;28;20457;-80
2021/06/27 02:31:19;;;;;;;4.85;4.13;;;18.80;89.50;;;;;;5052200;28;20053;-80
2021/06/27 02:33:45;;;;;;;7.65;4.65;;;18.80;89.70;;;;;;5070016;28;20678;-81
2021/06/27 02:36:11;;;;;;;5.07;4.07;;;18.70;89.80;;;;;;5052137;28;20021;-80
2021/06/27 02:38:37;;;;;;;8.88;4.28;;;18.70;89.90;;;;;;5069768;28;20496;-79
2021/06/27 02:41:05;;;;;;;7.43;4.80;;;18.70;90.00;;;;;;5052462;28;20079;-80
2021/06/27 02:43:31;;;;;;;10.65;4.72;;;18.80;90.10;;;;;;5051899;28;20596;-80
2021/06/27 02:45:56;;;;;;;7.55;4.47;;;18.80;90.10;;;;;;5069772;28;20100;-78
2021/06/27 02:48:22;;;;;;;6.32;4.43;;;18.90;90.10;;;;;;5069902;28;20029;-80
2021/06/27 02:50:48;;;;;;;5.47;4.05;;;18.90;90.00;;;;;;5051684;28;20021;-80
2021/06/27 02:53:13;;;;;;;8.80;5.22;;;19.00;89.90;;;;;;5069785;28;20028;-80
2021/06/27 02:55:39;;;;;;;6.57;4.82;;;19.10;89.70;;;;;;5051887;28;20021;-78
2021/06/27 02:58:05;;;;;;;6.88;4.85;;;19.10;89.60;;;;;;5051612;28;20025;-79
2021/06/27 03:00:31;;;;;;;5.07;4.22;;;19.20;89.30;;;;;;5051787;28;20056;-80
2021/06/27 03:02:58;;;;;;;7.43;4.63;;;19.30;88.80;;;;;;5051454;28;20033;-79
2021/06/27 03:05:24;;;;;;;7.18;4.40;;;19.30;88.10;;;;;;5051569;28;20126;-77
2021/06/27 03:07:50;;;;;;;5.78;3.95;;;19.40;87.90;;;;;;5069778;28;20043;-79
2021/06/27 03:10:18;;;;;;;5.72;3.50;;;19.50;87.50;;;;;;5051523;28;20397;-79
2021/06/27 03:12:45;;;;;;;4.40;3.67;;;19.50;87.00;;;;;;5051823;28;20081;-79
2021/06/27 03:15:13;;;;;;;5.72;3.53;;;19.50;86.60;;;;;;5051326;28;20081;-79
2021/06/27 03:17:40;;;;;;;6.45;3.85;;;19.60;86.20;;;;;;5069685;28;20059;-79
2021/06/27 03:20:08;;;;;;;8.57;3.83;;;19.60;86.10;;;;;;5051518;28;20024;-78
2021/06/27 03:22:34;;;;;;;9.48;4.70;;;19.70;86.20;;;;;;5051408;28;20040;-79
2021/06/27 03:25:00;;;;;;;7.63;3.65;;;19.80;85.80;;;;;;5051530;28;20031;-79
2021/06/27 03:27:26;;;;;;;5.65;3.67;;;19.80;85.30;;;;;;5069383;28;20029;-79
2021/06/27 03:29:51;;;;;;;6.70;3.38;;;19.80;84.40;;;;;;5051996;28;20021;-78
2021/06/27 03:32:17;;;;;;;4.63;2.97;;;19.80;84.40;;;;;;5073276;28;20056;-79
2021/06/27 03:34:43;;;;;;;7.40;4.78;;;19.90;84.70;;;;;;5073401;28;20385;-80
2021/06/27 03:37:09;;;;;;;6.57;3.92;;;19.90;85.20;;;;;;5073381;28;20028;-80
2021/06/27 03:39:35;;;;;;;6.07;3.45;;;20.00;84.70;;;;;;5073381;28;20047;-80
2021/06/27 03:42:00;;;;;;;4.15;3.20;;;20.10;84.20;;;;;;5055701;28;20040;-79
2021/06/27 03:44:27;;;;;;;4.35;3.28;;;20.20;83.90;;;;;;5073163;28;20574;-79
2021/06/27 03:46:54;;;;;;;4.78;3.45;;;20.30;84.50;;;;;;5073170;28;20512;-79
2021/06/27 03:49:20;;;;;;;8.10;4.60;;;20.30;84.70;;;;;;5073252;28;20021;-79
2021/06/27 03:51:46;;;;;;;7.22;3.80;;;20.40;84.70;;;;;;5055153;28;20028;-79
2021/06/27 03:54:13;;;;;;;6.00;4.07;;;20.40;84.40;;;;;;5055380;28;20031;-79
2021/06/27 03:56:38;;;;;;;7.35;4.05;;;20.40;84.40;;;;;;5073121;28;20024;-80
2021/06/27 03:59:05;;;;;;;11.73;5.70;;;20.40;84.60;;;;;;5055450;28;20098;-80
2021/06/27 04:01:31;;;;;;;7.78;4.00;;;20.40;85.10;;;;;;5072890;28;20104;-80
2021/06/27 04:03:57;;;;;;;4.47;3.60;;;20.30;85.50;;;;;;5072728;28;20064;-80
2021/06/27 04:06:23;;;;;;;4.82;4.15;;;20.30;85.80;;;;;;5072758;28;20028;-79
2021/06/27 04:08:48;;;;;;;5.35;4.40;;;20.30;86.30;;;;;;5054614;28;20033;-79
2021/06/27 04:11:14;;;;;;;6.82;5.03;;;20.30;86.20;;;;;;5054768;28;20031;-79
2021/06/27 04:13:40;;;;;;;5.50;4.78;;;20.30;86.20;;;;;;5054599;28;20459;-79
2021/06/27 04:16:06;;;;;;;8.57;4.22;;;20.30;86.10;;;;;;5072569;28;20032;-77
2021/06/27 04:18:33;;;;;;;8.35;4.78;;;20.20;85.90;;;;;;5072693;28;20027;-79
2021/06/27 04:20:59;;;;;;;7.38;4.68;;;20.20;86.00;;;;;;5072577;28;20037;-79
2021/06/27 04:23:26;;;;;;;7.15;4.43;;;20.20;85.70;;;;;;5072507;28;20086;-80
2021/06/27 04:25:52;;;;;;;9.43;5.07;;;20.20;85.50;;;;;;5054753;28;20453;-80
2021/06/27 04:28:18;;;;;;;9.07;5.00;;;20.20;85.50;;;;;;5054413;28;20041;-79
2021/06/27 04:30:44;;;;;;;6.85;4.68;;;20.20;85.80;;;;;;5054339;28;20049;-77
2021/06/27 04:33:11;;;;;;;5.68;4.35;;;20.20;85.90;;;;;;5072423;28;20039;-80
2021/06/27 04:35:38;;;;;;;9.38;4.97;;;20.20;86.40;;;;;;5072223;28;20059;-79
2021/06/27 04:38:05;;;;;;;5.55;4.72;;;20.20;86.50;;;;;;5071999;28;20060;-80
2021/06/27 04:40:32;;;;;;;6.60;4.45;;;20.30;86.50;;;;;;5071899;28;20013;-79
2021/06/27 04:42:58;;;;;;;5.72;4.07;;;20.30;86.70;;;;;;5071773;28;20073;-79
2021/06/27 04:45:23;;;;;;;9.23;3.88;;;20.40;86.60;;;;;;5054094;28;20041;-78
2021/06/27 04:47:49;;;;;;;8.02;4.80;;;20.40;86.10;;;;;;5054129;28;20035;-78
2021/06/27 04:50:15;;;;;;;5.72;3.80;;;20.50;86.00;;;;;;5072108;28;20033;-78
2021/06/27 04:52:40;;;;;;;5.13;4.07;;;20.60;85.60;;;;;;5072064;28;20331;-78
2021/06/27 04:55:07;;;;;;;5.90;4.00;;;20.60;85.10;;;;;;5071956;28;20280;-79
2021/06/27 04:57:34;;;;;;;8.23;3.90;;;20.70;84.70;;;;;;5053774;28;20059;-79
2021/06/27 05:00:00;;;;;;;4.45;3.45;;;20.70;84.80;;;;;;5053824;28;20032;-79
2021/06/27 05:02:26;;;;;;;5.38;3.65;;;20.80;83.10;;;;;;5071791;28;20172;-80
2021/06/27 05:04:52;;;;;;;6.40;3.70;;;20.80;82.90;;;;;;5071763;28;20093;-80
2021/06/27 05:07:17;;;;;;;17.25;4.65;;;20.80;83.20;;;;;;5071600;28;20070;-79
2021/06/27 05:09:43;;;;;;;9.85;4.82;;;20.80;85.20;;;;;;5071734;28;20078;-79
2021/06/27 05:12:09;;;;;;;5.80;2.17;;;20.90;87.20;;;;;;5072051;28;20032;-80
2021/06/27 05:14:35;;;;;;;4.45;2.30;;;20.80;87.00;;;;;;5071590;28;20485;-77
2021/06/27 05:17:01;;;;;;;7.93;2.65;;;20.80;86.20;;;;;;5071643;28;20032;-80
2021/06/27 05:19:27;;;;;;;7.50;2.30;;;20.60;86.40;;;;;;5053611;28;20020;-79
2021/06/27 05:21:52;;;;;;;3.47;2.33;;;20.60;87.20;;;;;;5071468;28;20070;-79
2021/06/27 05:24:19;;;;;;;6.93;2.95;;;20.70;87.70;;;;;;5053247;28;20911;-80
2021/06/27 05:26:45;;;;;;;6.30;3.65;;;20.70;88.10;;;;;;5053133;28;20107;-80
2021/06/27 05:29:11;;;;;;;5.68;3.17;;;20.80;87.60;;;;;;5071385;28;20531;-80
2021/06/27 05:31:37;;;;;;;6.15;3.65;;;20.90;87.20;;;;;;5053107;28;20045;-79
2021/06/27 05:34:04;;;;;;;4.32;3.08;;;21.00;85.90;;;;;;5053342;28;20032;-80
2021/06/27 05:36:30;;;;;;;8.02;3.47;;;21.10;85.10;;;;;;5071128;28;20032;-80
2021/06/27 05:38:55;;;;;;;3.75;2.95;;;21.20;84.90;;;;;;5070925;28;20396;-80
2021/06/27 05:41:21;;;;;;;6.38;3.13;;;21.30;85.10;;;;;;5071002;28;20500;-80
2021/06/27 05:43:47;;;;;;;4.75;2.70;;;21.50;85.30;;;;;;5052914;28;20047;-79
2021/06/27 05:46:12;;;;;;;3.47;2.15;;;21.70;85.30;;;;;;5053226;28;20401;-80
2021/06/27 05:48:38;;;;;;;6.97;2.83;;;21.90;84.40;;;;;;5052871;28;20643;-79
2021/06/27 05:51:04;;;;;;;4.30;2.42;;;22.20;82.80;;;;;;5070871;28;20583;-80
2021/06/27 05:53:30;;;;;;;5.47;2.85;;;22.40;81.40;;;;;;5051888;28;20512;-80
2021/06/27 05:56:10;;;;;;;8.57;2.90;;;22.70;81.10;;;;;;5070704;28;20393;-80
2021/06/27 05:58:41;;;;;;;18.75;2.70;;;23.00;80.50;;;;;;5052696;28;20141;-80
2021/06/27 06:01:08;;;;;;;10.40;2.20;;;23.50;78.40;;;;;;5052518;28;20032;-79
2021/06/27 06:03:34;;;;;;;21.08;1.83;;;24.10;76.60;;;;;;5052457;28;20043;-79
2021/06/27 06:05:59;;;;;;;38.08;3.13;;;25.70;72.50;;;;;;5052421;28;20036;-80
2021/06/27 06:08:25;;;;;;;2.97;1.75;;;27.60;64.90;;;;;;5070453;28;20063;-80
2021/06/27 06:10:52;;;;;;;5.95;1.70;;;29.00;59.50;;;;;;5052288;28;20165;-79
2021/06/27 06:13:17;;;;;;;6.20;1.58;;;29.40;56.70;;;;;;5070798;28;20028;-80
2021/06/27 06:15:43;;;;;;;2.97;1.75;;;29.30;55.50;;;;;;5052303;28;20025;-80
2021/06/27 06:18:08;;;;;;;3.15;1.40;;;29.70;54.80;;;;;;5052130;28;20056;-79
2021/06/27 06:20:34;;;;;;;2.92;1.80;;;30.70;50.60;;;;;;5052335;28;20102;-80
2021/06/27 06:23:00;;;;;;;3.30;1.20;;;31.30;48.60;;;;;;5070025;28;20501;-80
2021/06/27 06:25:26;;;;;;;3.67;1.60;;;31.40;48.50;;;;;;5052266;28;20140;-80
2021/06/27 06:27:52;;;;;;;3.35;1.88;;;31.00;49.40;;;;;;5070534;28;20042;-80
2021/06/27 06:30:18;;;;;;;2.30;1.60;;;30.30;50.40;;;;;;5051861;28;20032;-80
2021/06/27 06:32:44;;;;;;;1.95;1.52;;;29.60;50.80;;;;;;5069885;28;20113;-80
2021/06/27 06:35:10;;;;;;;2.80;1.35;;;29.10;51.50;;;;;;5051950;28;20059;-80
2021/06/27 06:37:35;;;;;;;2.72;1.85;;;28.70;52.80;;;;;;5069836;28;20107;-79
2021/06/27 06:40:02;;;;;;;1.98;1.35;;;28.20;53.70;;;;;;5070039;28;20499;-80
2021/06/27 06:42:28;;;;;;;8.30;2.00;;;28.30;54.50;;;;;;5069831;28;20048;-81
2021/06/27 06:44:53;;;;;;;2.40;1.52;;;29.40;53.90;;;;;;5070123;28;20497;-79
2021/06/27 06:47:19;;;;;;;8.27;1.95;;;30.80;50.00;;;;;;5051761;28;20485;-79
2021/06/27 06:49:44;;;;;;;5.93;2.13;;;32.00;45.80;;;;;;5051739;28;20032;-80
2021/06/27 06:52:10;;;;;;;2.22;1.77;;;32.70;43.90;;;;;;5051626;28;20021;-80
2021/06/27 06:54:36;;;;;;;3.78;2.05;;;33.70;42.30;;;;;;5052003;28;20622;-80
2021/06/27 06:57:02;;;;;;;2.45;1.60;;;34.30;40.50;;;;;;5051681;28;20028;-80
2021/06/27 06:59:27;;;;;;;5.13;2.20;;;34.70;39.60;;;;;;5069587;28;20032;-80
2021/06/27 07:01:53;;;;;;;6.03;1.83;;;35.20;39.40;;;;;;5069616;28;20039;-80
2021/06/27 07:04:18;;;;;;;3.33;2.05;;;35.60;37.20;;;;;;5069335;28;20047;-81
2021/06/27 07:06:44;;;;;;;3.75;1.75;;;35.70;37.10;;;;;;5051644;28;20378;-80
2021/06/27 07:09:10;;;;;;;2.40;1.60;;;35.70;35.60;;;;;;5069614;28;20512;-81
2021/06/27 07:11:36;;;;;;;2.88;1.50;;;35.80;34.70;;;;;;5069485;28;20024;-80
2021/06/27 07:14:02;;;;;;;3.05;1.70;;;35.50;36.00;;;;;;5069307;28;20427;-79
2021/06/27 07:16:28;;;;;;;2.25;1.60;;;35.50;35.10;;;;;;5069379;28;20044;-81
2021/06/27 07:18:53;;;;;;;5.53;1.63;;;35.60;35.30;;;;;;5051498;28;20047;-81
2021/06/27 07:21:19;;;;;;;3.50;2.15;;;35.70;35.20;;;;;;5051548;28;20485;-80
2021/06/27 07:23:45;;;;;;;2.45;1.63;;;35.60;34.60;;;;;;5069382;28;20036;-80
2021/06/27 07:26:11;;;;;;;1.90;1.65;;;35.90;35.30;;;;;;5069175;28;20096;-81
2021/06/27 07:28:37;;;;;;;3.90;1.85;;;36.30;34.40;;;;;;5051284;28;20074;-80
2021/06/27 07:31:03;;;;;;;2.85;1.80;;;36.70;33.60;;;;;;5048037;28;20138;-81
2021/06/27 07:33:28;;;;;;;2.13;1.70;;;36.80;32.80;;;;;;5049037;28;20096;-80
2021/06/27 07:35:54;;;;;;;5.35;1.65;;;36.50;33.10;;;;;;5049307;28;20110;-81
2021/06/27 07:38:20;;;;;;;2.35;1.58;;;37.00;32.20;;;;;;5048250;28;20029;-80
2021/06/27 07:40:46;;;;;;;5.10;1.98;;;36.40;33.40;;;;;;5047966;28;20025;-80
2021/06/27 07:43:11;;;;;;;6.60;2.17;;;36.50;33.80;;;;;;5049194;28;20036;-79
2021/06/27 07:45:37;;;;;;;2.97;2.20;;;36.50;33.80;;;;;;5048108;28;20071;-80
2021/06/27 07:48:04;;;;;;;3.65;1.85;;;36.70;33.40;;;;;;5047686;28;20029;-81
2021/06/27 07:50:29;;;;;;;6.00;2.17;;;36.90;33.70;;;;;;5047883;28;20374;-80
2021/06/27 07:52:55;;;;;;;3.83;2.38;;;35.90;33.90;;;;;;5047898;28;20025;-79
2021/06/27 07:55:21;;;;;;;4.72;2.45;;;35.40;35.00;;;;;;5047653;28;20033;-80
2021/06/27 07:57:46;;;;;;;4.57;2.00;;;34.40;36.20;;;;;;5049109;28;20096;-80
2021/06/27 08:00:13;;;;;;;5.82;2.40;;;34.30;37.10;;;;;;5048909;28;20090;-80
2021/06/27 08:02:38;;;;;;;4.50;3.15;;;34.40;36.90;;;;;;5049031;28;20641;-80
2021/06/27 08:05:05;;;;;;;4.75;2.72;;;34.90;36.50;;;;;;5047652;28;20040;-80
2021/06/27 08:07:31;;;;;;;4.03;2.05;;;34.90;36.50;;;;;;5047595;28;20032;-80
2021/06/27 08:09:56;;;;;;;4.05;2.63;;;35.00;35.90;;;;;;5048920;28;20029;-79
2021/06/27 08:12:22;;;;;;;4.25;2.58;;;34.40;37.30;;;;;;5047726;28;20056;-80
2021/06/27 08:14:48;;;;;;;8.00;2.40;;;33.90;38.10;;;;;;5047418;28;20482;-81
2021/06/27 08:17:17;;;;;;;7.18;2.72;;;33.80;38.00;;;;;;5051377;28;20033;-80
2021/06/27 08:19:46;;;;;;;3.03;2.10;;;33.80;38.30;;;;;;5052735;28;20071;-79
2021/06/27 08:22:11;;;;;;;3.88;2.30;;;33.50;38.60;;;;;;5052519;28;20027;-79
2021/06/27 08:24:37;;;;;;;3.83;2.40;;;32.90;39.50;;;;;;5052267;28;20033;-79
2021/06/27 08:27:03;;;;;;;6.78;2.38;;;32.00;41.10;;;;;;5052411;28;20489;-79
2021/06/27 08:29:28;;;;;;;3.72;2.42;;;31.20;43.10;;;;;;5052430;28;20095;-80
2021/06/27 08:31:54;;;;;;;4.20;2.22;;;30.70;43.70;;;;;;5050806;28;20061;-79
2021/06/27 08:34:20;;;;;;;4.93;2.33;;;30.30;45.60;;;;;;5052188;28;20037;-79
2021/06/27 08:36:45;;;;;;;13.00;3.05;;;29.90;46.10;;;;;;5052413;28;20493;-80
2021/06/27 08:39:11;;;;;;;4.28;2.65;;;29.70;47.00;;;;;;5052224;28;20111;-80
2021/06/27 08:41:37;;;;;;;11.75;2.80;;;29.10;47.90;;;;;;5052255;28;20054;-78
2021/06/27 08:44:05;;;;;;;5.63;2.60;;;28.50;51.30;;;;;;5051941;28;20076;-81
2021/06/27 08:46:34;;;;;;;9.20;2.95;;;28.20;53.50;;;;;;5051799;28;20017;-79
2021/06/27 08:49:00;;;;;;;4.40;2.80;;;27.90;55.50;;;;;;5051862;28;20036;-80
2021/06/27 08:51:26;;;;;;;8.52;2.75;;;27.60;58.30;;;;;;5051826;28;20070;-80
2021/06/27 08:53:52;;;;;;;4.93;3.50;;;27.10;62.20;;;;;;5052008;28;20029;-79
2021/06/27 08:56:18;;;;;;;3.65;2.38;;;26.50;65.60;;;;;;5051741;28;20431;-80
2021/06/27 08:58:45;;;;;;;6.63;3.10;;;26.00;67.60;;;;;;5050534;28;20048;-79
2021/06/27 09:01:18;;;;;;;7.43;3.38;;;25.40;69.80;;;;;;5051186;28;20513;-79
2021/06/27 09:03:48;;;;;;;11.75;3.75;;;25.00;72.10;;;;;;5050275;28;20041;-79
2021/06/27 09:06:26;;;;;;;11.88;3.38;;;24.50;72.90;;;;;;5051658;28;20083;-79
2021/06/27 09:09:19;;;;;;;5.70;2.92;;;24.20;74.00;;;;;;5051572;28;20017;-79
2021/06/27 09:11:57;;;;;;;5.95;3.08;;;23.90;76.00;;;;;;5050255;28;20028;-80
2021/06/27 09:14:43;;;;;;;5.63;2.90;;;23.70;77.10;;;;;;5050299;28;20067;-79
2021/06/27 09:17:25;;;;;;;8.18;3.25;;;23.70;78.50;;;;;;5051610;28;20541;-80
2021/06/27 09:19:58;;;;;;;10.20;3.17;;;23.60;78.90;;;;;;5050054;28;20116;-79
2021/06/27 09:22:34;;;;;;;6.38;3.08;;;23.70;80.10;;;;;;5050103;28;20025;-79
2021/06/27 09:25:22;;;;;;;5.38;2.33;;;23.70;78.30;;;;;;5050124;28;20522;-79
2021/06/27 09:28:01;;;;;;;4.22;2.40;;;23.80;79.00;;;;;;5049944;28;20049;-80
2021/06/27 09:30:27;;;;;;;4.80;3.08;;;24.00;79.20;;;;;;5049908;28;20075;-79
2021/06/27 09:33:14;;;;;;;5.63;3.13;;;24.60;78.90;;;;;;5051113;28;20048;-80
2021/06/27 09:35:55;;;;;;;5.15;2.35;;;25.40;76.20;;;;;;5051258;28;20566;-79
2021/06/27 09:38:30;;;;;;;9.68;3.03;;;26.20;73.40;;;;;;5051152;28;20501;-80
2021/06/27 09:40:57;;;;;;;4.70;2.95;;;27.20;71.10;;;;;;5049870;28;20040;-79
2021/06/27 09:43:25;;;;;;;5.18;2.70;;;28.20;67.10;;;;;;5050909;28;20037;-78
2021/06/27 09:45:57;;;;;;;7.00;2.53;;;28.80;65.50;;;;;;5049931;28;20017;-79
2021/06/27 09:48:24;;;;;;;3.17;1.88;;;29.10;62.90;;;;;;5049400;28;20037;-78
2021/06/27 09:50:50;;;;;;;3.28;2.10;;;28.90;60.00;;;;;;5049413;28;20056;-79
2021/06/27 09:53:37;;;;;;;4.40;1.80;;;28.30;60.40;;;;;;5050725;28;20061;-78
2021/06/27 09:56:06;;;;;;;4.05;2.30;;;27.80;61.80;;;;;;5049313;28;20025;-79
2021/06/27 09:58:32;;;;;;;2.45;1.50;;;27.80;63.20;;;;;;5049670;28;20575;-79
2021/06/27 10:00:58;;;;;;;5.47;1.90;;;28.30;62.10;;;;;;5049267;28;20509;-79
2021/06/27 10:03:43;;;;;;;3.05;1.70;;;28.70;59.70;;;;;;5050310;28;20032;-79
2021/06/27 10:06:10;;;;;;;3.17;1.80;;;29.00;59.40;;;;;;5050618;28;20028;-78
2021/06/27 10:08:36;;;;;;;3.58;1.55;;;28.80;55.30;;;;;;5049228;28;20029;-78
2021/06/27 10:11:19;;;;;;;4.43;1.58;;;28.40;55.90;;;;;;5049079;28;20053;-79
2021/06/27 10:13:51;;;;;;;3.70;2.10;;;28.30;56.90;;;;;;5050504;28;20025;-78
2021/06/27 10:16:29;;;;;;;3.33;2.03;;;28.20;57.40;;;;;;5048993;28;20039;-79
2021/06/27 10:18:56;;;;;;;3.22;2.05;;;28.30;57.10;;;;;;5049094;28;20103;-79
2021/06/27 10:21:22;;;;;;;3.10;2.10;;;28.40;58.60;;;;;;5049095;28;20112;-79
2021/06/27 10:23:50;;;;;;;4.38;2.97;;;28.60;56.70;;;;;;5050255;28;20041;-79
2021/06/27 10:26:16;;;;;;;3.72;2.60;;;28.60;55.00;;;;;;5048697;28;20025;-80
2021/06/27 10:28:43;;;;;;;6.25;2.65;;;28.70;53.50;;;;;;5050038;28;20040;-79
2021/06/27 10:31:12;;;;;;;3.38;2.58;;;28.90;54.10;;;;;;5059432;28;20040;-78
2021/06/27 10:33:39;;;;;;;4.25;2.42;;;29.00;53.10;;;;;;5070055;28;20032;-78
2021/06/27 10:36:06;;;;;;;3.35;2.22;;;29.00;53.20;;;;;;5051919;28;20029;-79
2021/06/27 10:38:34;;;;;;;8.15;2.78;;;29.10;52.40;;;;;;5051683;28;20055;-78
2021/06/27 10:41:01;;;;;;;6.97;2.90;;;29.20;53.90;;;;;;5051673;28;20568;-79
2021/06/27 10:44:05;;;;;;;6.88;2.42;;;29.00;51.90;;;;;;5069714;28;20036;-79
2021/06/27 10:47:03;;;;;;;4.05;2.95;;;28.90;50.30;;;;;;5051922;28;20052;-78
2021/06/27 10:49:34;;;;;;;5.38;3.40;;;29.10;50.80;;;;;;5008502;28;20040;-78
2021/06/27 10:52:00;;;;;;;3.78;2.60;;;29.30;51.50;;;;;;5069666;28;20549;-79
2021/06/27 10:54:30;;;;;;;4.07;3.25;;;29.40;50.00;;;;;;5069802;28;20103;-78
2021/06/27 10:57:04;;;;;;;3.30;2.67;;;29.50;48.80;;;;;;5069698;28;20085;-78
2021/06/27 10:59:39;;;;;;;4.13;2.75;;;29.50;48.50;;;;;;5069564;28;20020;-79
2021/06/27 11:02:18;;;;;;;5.23;3.13;;;29.50;47.60;;;;;;5069665;28;20024;-78
2021/06/27 11:04:45;;;;;;;3.13;2.83;;;29.50;47.40;;;;;;5051509;28;20233;-78
2021/06/27 11:07:33;;;;;;;3.65;2.88;;;29.40;49.30;;;;;;5051790;28;20098;-79
2021/06/27 11:10:35;;;;;;;4.10;2.80;;;29.40;46.80;;;;;;5069561;28;20023;-79
2021/06/27 11:13:00;;;;;;;3.90;2.70;;;29.30;47.50;;;;;;4968150;28;20727;-79
2021/06/27 11:15:32;;;;;;;4.65;2.78;;;29.30;49.60;;;;;;5049103;28;20032;-78
2021/06/27 11:18:18;;;;;;;5.60;2.83;;;29.50;47.80;;;;;;5051340;28;20477;-79
2021/06/27 11:20:52;;;;;;;3.65;2.70;;;29.50;46.20;;;;;;5069327;28;20107;-78
2021/06/27 11:23:19;;;;;;;4.03;3.28;;;29.30;47.60;;;;;;5051458;28;20093;-78
2021/06/27 11:25:47;;;;;;;6.20;2.78;;;29.40;47.80;;;;;;5051814;28;20081;-79
2021/06/27 11:28:34;;;;;;;5.57;3.15;;;29.20;46.30;;;;;;5069311;28;20025;-78
2021/06/27 11:31:38;;;;;;;3.53;2.38;;;28.80;46.80;;;;;;5069180;28;20056;-79
2021/06/27 11:34:30;;;;;;;4.55;2.92;;;28.70;48.10;;;;;;4968278;28;20304;-78
2021/06/27 11:36:57;;;;;;;5.93;2.95;;;28.70;48.60;;;;;;4951936;28;20041;-79
2021/06/27 11:39:45;;;;;;;3.25;2.70;;;28.70;48.90;;;;;;5034142;28;20033;-79
2021/06/27 11:42:34;;;;;;;4.70;2.65;;;28.70;49.00;;;;;;5069440;28;20454;-78
2021/06/27 11:45:06;;;;;;;3.63;2.90;;;28.70;49.10;;;;;;5036534;28;20090;-78
2021/06/27 11:47:50;;;;;;;3.20;2.30;;;28.70;49.80;;;;;;5069122;28;20021;-78
2021/06/27 11:50:25;;;;;;;6.88;2.80;;;28.70;49.50;;;;;;5051098;28;20559;-78
2021/06/27 11:52:53;;;;;;;3.40;2.50;;;28.70;49.50;;;;;;5072645;28;20036;-78
2021/06/27 11:55:27;;;;;;;4.75;2.97;;;28.70;49.40;;;;;;5072954;28;20032;-79
2021/06/27 11:57:53;;;;;;;5.75;2.97;;;28.60;49.00;;;;;;5055131;28;20509;-79
2021/06/27 12:00:19;;;;;;;5.63;3.15;;;28.60;47.90;;;;;;5054822;28;20150;-78
2021/06/27 12:02:45;;;;;;;3.83;2.97;;;28.60;48.60;;;;;;5054920;28;20036;-78
2021/06/27 12:05:15;;;;;;;4.68;3.03;;;28.60;49.30;;;;;;5072889;28;20029;-78
2021/06/27 12:07:46;;;;;;;3.35;2.80;;;28.60;49.10;;;;;;5072767;28;20054;-78
2021/06/27 12:10:19;;;;;;;4.13;2.72;;;28.60;49.60;;;;;;5054774;28;20397;-79
2021/06/27 12:12:52;;;;;;;4.03;2.83;;;28.90;49.10;;;;;;5054984;28;20028;-78
2021/06/27 12:15:17;;;;;;;5.13;2.85;;;29.00;48.40;;;;;;5054554;28;20032;-78
2021/06/27 12:17:48;;;;;;;3.55;3.05;;;29.10;46.80;;;;;;5054600;28;20024;-78
2021/06/27 12:20:15;;;;;;;5.03;3.20;;;29.30;47.00;;;;;;5072515;28;20021;-78
2021/06/27 12:23:03;;;;;;;11.18;3.15;;;29.60;47.60;;;;;;5072342;28;20036;-78
2021/06/27 12:25:29;;;;;;;8.35;2.72;;;30.00;45.60;;;;;;5054424;28;20036;-78
2021/06/27 12:27:57;;;;;;;5.18;2.97;;;30.00;45.50;;;;;;5054387;28;20055;-79
2021/06/27 12:30:42;;;;;;;6.22;3.28;;;29.90;45.60;;;;;;5054337;28;20052;-79
2021/06/27 12:33:29;;;;;;;3.75;2.75;;;30.10;44.80;;;;;;5072309;28;20112;-79
2021/06/27 12:36:02;;;;;;;4.55;2.88;;;30.10;45.10;;;;;;5071270;28;20047;-79
2021/06/27 12:38:29;;;;;;;4.03;3.17;;;30.40;45.60;;;;;;5072338;28;20063;-79
2021/06/27 12:40:57;;;;;;;5.38;3.15;;;30.70;44.20;;;;;;5054136;28;20061;-79
2021/06/27 12:43:27;;;;;;;3.80;2.88;;;30.70;44.00;;;;;;5071980;28;20045;-79
2021/06/27 12:46:19;;;;;;;4.05;3.00;;;30.90;42.60;;;;;;5072185;28;20032;-79
2021/06/27 12:48:48;;;;;;;6.28;2.50;;;30.90;43.80;;;;;;5016460;28;20051;-79
2021/06/27 12:51:32;;;;;;;6.05;3.10;;;30.90;43.90;;;;;;5072089;28;20020;-77
2021/06/27 12:54:07;;;;;;;3.15;2.63;;;30.90;43.60;;;;;;5071911;28;20028;-79